Attica, Indiana
Current Conditions -  °F | °C
As of 12:54 AM on Thursday 23 Oct 2014 (Local Time) from KLAF Reporting Station
Clear Clear  
Wind Chill: 41°   Ceiling: Unl
Heat Index: 41°   Visibility: 10mi
Dew Point: 38°   Wind: 3mph
Humidity: 89%   Direction: 80°E
Pressure: 30.27"   Gusts: NA
Location:  40.29°N, 87.25°W
Report Text: KLAF 230454Z AUTO 08003KT 10SM CLR 05/03 A3027 RMK AO2 SLP253 T00500033 401390006 TSNO
Loading
Personal Weather Stations






























Interactive Weather Map
Tropical Storm Tracking
New forecast layout! Learn more

10-Day Weather Forecast

Advertisements
Track Severe Weather on mobile